sensor_id;sensor_type;location;lat;lon;timestamp;P1;durP1;ratioP1;P2;durP2;ratioP2
14933;SDS011;7560;51.364;12.384;2023-04-06T00:00:59;8.95;;;6.20;;
14933;SDS011;7560;51.364;12.384;2023-04-06T00:06:00;9.63;;;6.00;;
14933;SDS011;7560;51.364;12.384;2023-04-06T00:11:02;9.40;;;6.15;;
14933;SDS011;7560;51.364;12.384;2023-04-06T00:16:04;10.77;;;6.43;;
14933;SDS011;7560;51.364;12.384;2023-04-06T00:21:11;10.80;;;6.85;;
14933;SDS011;7560;51.364;12.384;2023-04-06T00:26:14;11.02;;;6.20;;
14933;SDS011;7560;51.364;12.384;2023-04-06T00:31:15;9.80;;;6.95;;
14933;SDS011;7560;51.364;12.384;2023-04-06T00:36:17;11.40;;;6.97;;
14933;SDS011;7560;51.364;12.384;2023-04-06T00:41:19;9.98;;;6.68;;
14933;SDS011;7560;51.364;12.384;2023-04-06T00:46:21;11.43;;;6.28;;
14933;SDS011;7560;51.364;12.384;2023-04-06T00:51:24;8.35;;;6.40;;
14933;SDS011;7560;51.364;12.384;2023-04-06T00:56:26;8.15;;;6.15;;
14933;SDS011;7560;51.364;12.384;2023-04-06T01:01:28;9.98;;;6.97;;
14933;SDS011;7560;51.364;12.384;2023-04-06T01:06:30;8.95;;;6.03;;
14933;SDS011;7560;51.364;12.384;2023-04-06T01:11:32;9.23;;;6.57;;
14933;SDS011;7560;51.364;12.384;2023-04-06T01:16:34;9.05;;;6.30;;
14933;SDS011;7560;51.364;12.384;2023-04-06T01:21:36;9.30;;;6.57;;
14933;SDS011;7560;51.364;12.384;2023-04-06T01:26:40;9.30;;;5.97;;
14933;SDS011;7560;51.364;12.384;2023-04-06T01:31:42;8.48;;;6.07;;
14933;SDS011;7560;51.364;12.384;2023-04-06T01:36:44;10.45;;;5.80;;
14933;SDS011;7560;51.364;12.384;2023-04-06T01:41:46;9.32;;;6.40;;
14933;SDS011;7560;51.364;12.384;2023-04-06T01:46:48;10.30;;;6.28;;
14933;SDS011;7560;51.364;12.384;2023-04-06T01:51:50;9.88;;;6.13;;
14933;SDS011;7560;51.364;12.384;2023-04-06T01:56:52;9.38;;;6.00;;
14933;SDS011;7560;51.364;12.384;2023-04-06T02:01:54;10.20;;;5.93;;
14933;SDS011;7560;51.364;12.384;2023-04-06T02:06:56;8.10;;;5.55;;
14933;SDS011;7560;51.364;12.384;2023-04-06T02:11:58;9.40;;;5.88;;
14933;SDS011;7560;51.364;12.384;2023-04-06T02:16:59;8.77;;;5.90;;
14933;SDS011;7560;51.364;12.384;2023-04-06T02:22:01;10.32;;;6.00;;
14933;SDS011;7560;51.364;12.384;2023-04-06T02:27:03;10.30;;;6.28;;
14933;SDS011;7560;51.364;12.384;2023-04-06T02:32:05;8.82;;;5.80;;
14933;SDS011;7560;51.364;12.384;2023-04-06T02:37:06;8.07;;;6.00;;
14933;SDS011;7560;51.364;12.384;2023-04-06T02:42:08;12.40;;;6.70;;
14933;SDS011;7560;51.364;12.384;2023-04-06T02:47:10;7.45;;;5.75;;
14933;SDS011;7560;51.364;12.384;2023-04-06T02:52:12;10.23;;;6.57;;
14933;SDS011;7560;51.364;12.384;2023-04-06T02:57:14;10.05;;;6.70;;
14933;SDS011;7560;51.364;12.384;2023-04-06T03:02:15;9.13;;;6.10;;
14933;SDS011;7560;51.364;12.384;2023-04-06T03:07:17;10.40;;;6.43;;
14933;SDS011;7560;51.364;12.384;2023-04-06T03:12:19;9.50;;;6.43;;
14933;SDS011;7560;51.364;12.384;2023-04-06T03:17:21;9.63;;;6.72;;
14933;SDS011;7560;51.364;12.384;2023-04-06T03:22:23;8.45;;;6.50;;
14933;SDS011;7560;51.364;12.384;2023-04-06T03:27:25;13.05;;;6.55;;
14933;SDS011;7560;51.364;12.384;2023-04-06T03:32:26;9.93;;;6.55;;
14933;SDS011;7560;51.364;12.384;2023-04-06T03:37:28;9.93;;;6.55;;
14933;SDS011;7560;51.364;12.384;2023-04-06T03:42:30;9.15;;;6.50;;
14933;SDS011;7560;51.364;12.384;2023-04-06T03:47:33;10.77;;;6.82;;
14933;SDS011;7560;51.364;12.384;2023-04-06T03:52:35;10.10;;;6.95;;
14933;SDS011;7560;51.364;12.384;2023-04-06T03:57:37;11.32;;;6.88;;
14933;SDS011;7560;51.364;12.384;2023-04-06T04:02:39;9.65;;;6.90;;
14933;SDS011;7560;51.364;12.384;2023-04-06T04:07:41;10.88;;;7.35;;
14933;SDS011;7560;51.364;12.384;2023-04-06T04:12:43;10.82;;;7.53;;
14933;SDS011;7560;51.364;12.384;2023-04-06T04:17:45;9.40;;;6.63;;
14933;SDS011;7560;51.364;12.384;2023-04-06T04:22:50;13.60;;;7.82;;
14933;SDS011;7560;51.364;12.384;2023-04-06T04:27:52;12.75;;;8.02;;
14933;SDS011;7560;51.364;12.384;2023-04-06T04:32:54;11.15;;;7.25;;
14933;SDS011;7560;51.364;12.384;2023-04-06T04:37:56;12.70;;;7.60;;
14933;SDS011;7560;51.364;12.384;2023-04-06T04:42:57;16.08;;;9.55;;
14933;SDS011;7560;51.364;12.384;2023-04-06T04:47:59;13.75;;;8.02;;
14933;SDS011;7560;51.364;12.384;2023-04-06T04:53:01;12.73;;;7.75;;
14933;SDS011;7560;51.364;12.384;2023-04-06T04:58:06;14.20;;;7.88;;
14933;SDS011;7560;51.364;12.384;2023-04-06T05:03:11;14.70;;;8.25;;
14933;SDS011;7560;51.364;12.384;2023-04-06T05:08:19;14.88;;;8.48;;
14933;SDS011;7560;51.364;12.384;2023-04-06T05:13:21;11.48;;;8.05;;
14933;SDS011;7560;51.364;12.384;2023-04-06T05:18:23;12.80;;;7.65;;
14933;SDS011;7560;51.364;12.384;2023-04-06T05:23:25;11.80;;;8.02;;
14933;SDS011;7560;51.364;12.384;2023-04-06T05:28:27;13.18;;;8.63;;
14933;SDS011;7560;51.364;12.384;2023-04-06T05:33:29;12.88;;;8.85;;
14933;SDS011;7560;51.364;12.384;2023-04-06T05:38:31;16.60;;;9.57;;
14933;SDS011;7560;51.364;12.384;2023-04-06T05:43:34;11.88;;;8.68;;
14933;SDS011;7560;51.364;12.384;2023-04-06T05:48:36;20.00;;;10.48;;
14933;SDS011;7560;51.364;12.384;2023-04-06T05:53:38;15.95;;;9.48;;
14933;SDS011;7560;51.364;12.384;2023-04-06T05:58:39;14.98;;;8.77;;
14933;SDS011;7560;51.364;12.384;2023-04-06T06:03:41;13.05;;;9.00;;
14933;SDS011;7560;51.364;12.384;2023-04-06T06:08:43;13.70;;;8.52;;
14933;SDS011;7560;51.364;12.384;2023-04-06T06:13:45;14.23;;;8.55;;
14933;SDS011;7560;51.364;12.384;2023-04-06T06:18:47;14.80;;;8.57;;
14933;SDS011;7560;51.364;12.384;2023-04-06T06:23:49;14.60;;;9.07;;
14933;SDS011;7560;51.364;12.384;2023-04-06T06:28:51;10.38;;;7.90;;
14933;SDS011;7560;51.364;12.384;2023-04-06T06:33:53;12.82;;;8.32;;
14933;SDS011;7560;51.364;12.384;2023-04-06T06:38:54;12.55;;;8.48;;
14933;SDS011;7560;51.364;12.384;2023-04-06T06:43:56;13.25;;;8.15;;
14933;SDS011;7560;51.364;12.384;2023-04-06T06:48:58;12.88;;;7.55;;
14933;SDS011;7560;51.364;12.384;2023-04-06T06:54:00;8.10;;;6.53;;
14933;SDS011;7560;51.364;12.384;2023-04-06T06:59:02;10.20;;;7.13;;
14933;SDS011;7560;51.364;12.384;2023-04-06T07:04:04;7.95;;;5.45;;
14933;SDS011;7560;51.364;12.384;2023-04-06T07:09:06;9.50;;;6.85;;
14933;SDS011;7560;51.364;12.384;2023-04-06T07:14:08;9.45;;;6.88;;
14933;SDS011;7560;51.364;12.384;2023-04-06T07:19:10;9.05;;;6.30;;
14933;SDS011;7560;51.364;12.384;2023-04-06T07:24:12;10.75;;;6.45;;
14933;SDS011;7560;51.364;12.384;2023-04-06T07:29:14;8.63;;;6.60;;
14933;SDS011;7560;51.364;12.384;2023-04-06T07:34:16;8.23;;;6.00;;
14933;SDS011;7560;51.364;12.384;2023-04-06T07:39:17;9.27;;;6.07;;
14933;SDS011;7560;51.364;12.384;2023-04-06T07:44:19;8.57;;;5.78;;
14933;SDS011;7560;51.364;12.384;2023-04-06T07:49:21;8.70;;;5.80;;
14933;SDS011;7560;51.364;12.384;2023-04-06T07:54:24;8.65;;;5.78;;
14933;SDS011;7560;51.364;12.384;2023-04-06T07:59:26;8.93;;;6.40;;
14933;SDS011;7560;51.364;12.384;2023-04-06T08:04:28;8.80;;;5.25;;
14933;SDS011;7560;51.364;12.384;2023-04-06T08:09:30;6.88;;;5.55;;
14933;SDS011;7560;51.364;12.384;2023-04-06T08:14:32;7.03;;;5.65;;
14933;SDS011;7560;51.364;12.384;2023-04-06T08:19:34;9.57;;;5.63;;
14933;SDS011;7560;51.364;12.384;2023-04-06T08:24:36;7.07;;;5.80;;
14933;SDS011;7560;51.364;12.384;2023-04-06T08:29:38;10.10;;;6.22;;
14933;SDS011;7560;51.364;12.384;2023-04-06T08:34:40;8.02;;;5.47;;
14933;SDS011;7560;51.364;12.384;2023-04-06T08:39:42;8.15;;;5.90;;
14933;SDS011;7560;51.364;12.384;2023-04-06T08:44:43;8.95;;;5.90;;
14933;SDS011;7560;51.364;12.384;2023-04-06T08:49:46;11.75;;;6.15;;
14933;SDS011;7560;51.364;12.384;2023-04-06T08:54:49;9.77;;;6.28;;
14933;SDS011;7560;51.364;12.384;2023-04-06T08:59:51;7.18;;;5.53;;
14933;SDS011;7560;51.364;12.384;2023-04-06T09:04:53;11.40;;;6.78;;
14933;SDS011;7560;51.364;12.384;2023-04-06T09:09:55;7.65;;;5.90;;
14933;SDS011;7560;51.364;12.384;2023-04-06T09:14:58;7.95;;;5.82;;
14933;SDS011;7560;51.364;12.384;2023-04-06T09:20:01;9.27;;;5.20;;
14933;SDS011;7560;51.364;12.384;2023-04-06T09:25:04;10.43;;;6.25;;
14933;SDS011;7560;51.364;12.384;2023-04-06T09:30:08;9.70;;;6.40;;
14933;SDS011;7560;51.364;12.384;2023-04-06T09:35:15;9.93;;;5.68;;
14933;SDS011;7560;51.364;12.384;2023-04-06T09:40:18;10.30;;;5.50;;
14933;SDS011;7560;51.364;12.384;2023-04-06T09:45:20;8.32;;;5.75;;
14933;SDS011;7560;51.364;12.384;2023-04-06T09:50:22;9.30;;;5.93;;
14933;SDS011;7560;51.364;12.384;2023-04-06T09:56:01;9.35;;;5.20;;
14933;SDS011;7560;51.364;12.384;2023-04-06T10:01:02;8.23;;;5.43;;
14933;SDS011;7560;51.364;12.384;2023-04-06T10:06:13;8.45;;;5.70;;
14933;SDS011;7560;51.364;12.384;2023-04-06T10:11:20;8.32;;;5.13;;
14933;SDS011;7560;51.364;12.384;2023-04-06T10:16:22;6.95;;;4.85;;
14933;SDS011;7560;51.364;12.384;2023-04-06T10:21:26;10.43;;;6.57;;
14933;SDS011;7560;51.364;12.384;2023-04-06T10:26:31;6.20;;;5.05;;
14933;SDS011;7560;51.364;12.384;2023-04-06T10:31:39;7.18;;;5.35;;
14933;SDS011;7560;51.364;12.384;2023-04-06T10:36:43;9.02;;;5.63;;
14933;SDS011;7560;51.364;12.384;2023-04-06T10:41:45;6.97;;;5.20;;
14933;SDS011;7560;51.364;12.384;2023-04-06T10:46:53;8.10;;;5.80;;
14933;SDS011;7560;51.364;12.384;2023-04-06T10:51:58;7.45;;;5.50;;
14933;SDS011;7560;51.364;12.384;2023-04-06T10:57:00;5.88;;;5.28;;
14933;SDS011;7560;51.364;12.384;2023-04-06T11:02:02;8.00;;;6.00;;
14933;SDS011;7560;51.364;12.384;2023-04-06T11:07:04;8.50;;;5.80;;
14933;SDS011;7560;51.364;12.384;2023-04-06T11:12:06;8.75;;;5.55;;
14933;SDS011;7560;51.364;12.384;2023-04-06T11:17:08;7.75;;;5.80;;
14933;SDS011;7560;51.364;12.384;2023-04-06T11:22:10;7.75;;;6.20;;
14933;SDS011;7560;51.364;12.384;2023-04-06T11:27:12;6.53;;;5.18;;
14933;SDS011;7560;51.364;12.384;2023-04-06T11:32:20;6.60;;;5.63;;
14933;SDS011;7560;51.364;12.384;2023-04-06T11:37:25;9.35;;;5.50;;
14933;SDS011;7560;51.364;12.384;2023-04-06T11:42:28;7.75;;;5.28;;
14933;SDS011;7560;51.364;12.384;2023-04-06T11:47:35;6.63;;;4.90;;
14933;SDS011;7560;51.364;12.384;2023-04-06T11:52:42;9.00;;;5.20;;
14933;SDS011;7560;51.364;12.384;2023-04-06T11:57:44;6.20;;;5.38;;
14933;SDS011;7560;51.364;12.384;2023-04-06T12:02:50;7.05;;;5.20;;
14933;SDS011;7560;51.364;12.384;2023-04-06T12:07:52;7.97;;;5.72;;
14933;SDS011;7560;51.364;12.384;2023-04-06T12:12:54;6.18;;;5.30;;
14933;SDS011;7560;51.364;12.384;2023-04-06T12:17:56;6.82;;;5.63;;
14933;SDS011;7560;51.364;12.384;2023-04-06T12:22:58;6.35;;;5.03;;
14933;SDS011;7560;51.364;12.384;2023-04-06T12:28:02;7.25;;;5.22;;
14933;SDS011;7560;51.364;12.384;2023-04-06T12:33:04;7.03;;;5.45;;
14933;SDS011;7560;51.364;12.384;2023-04-06T12:38:06;10.77;;;5.60;;
14933;SDS011;7560;51.364;12.384;2023-04-06T12:43:08;7.40;;;4.80;;
14933;SDS011;7560;51.364;12.384;2023-04-06T12:48:10;7.22;;;5.38;;
14933;SDS011;7560;51.364;12.384;2023-04-06T12:53:12;7.05;;;4.95;;
14933;SDS011;7560;51.364;12.384;2023-04-06T12:58:13;6.28;;;5.18;;
14933;SDS011;7560;51.364;12.384;2023-04-06T13:03:19;7.45;;;5.15;;
14933;SDS011;7560;51.364;12.384;2023-04-06T13:08:22;8.35;;;5.32;;
14933;SDS011;7560;51.364;12.384;2023-04-06T13:13:27;7.15;;;4.93;;
14933;SDS011;7560;51.364;12.384;2023-04-06T13:18:30;7.93;;;5.13;;
14933;SDS011;7560;51.364;12.384;2023-04-06T13:23:36;6.43;;;5.03;;
14933;SDS011;7560;51.364;12.384;2023-04-06T13:28:38;8.13;;;6.20;;
14933;SDS011;7560;51.364;12.384;2023-04-06T13:33:41;8.38;;;5.32;;
14933;SDS011;7560;51.364;12.384;2023-04-06T13:38:43;10.32;;;6.57;;
14933;SDS011;7560;51.364;12.384;2023-04-06T13:43:45;5.32;;;4.82;;
14933;SDS011;7560;51.364;12.384;2023-04-06T13:48:47;9.02;;;7.10;;
14933;SDS011;7560;51.364;12.384;2023-04-06T13:53:49;6.82;;;5.60;;
14933;SDS011;7560;51.364;12.384;2023-04-06T13:58:54;6.57;;;5.80;;
14933;SDS011;7560;51.364;12.384;2023-04-06T14:03:59;6.32;;;5.68;;
14933;SDS011;7560;51.364;12.384;2023-04-06T14:09:01;8.15;;;5.50;;
14933;SDS011;7560;51.364;12.384;2023-04-06T14:14:03;5.85;;;5.25;;
14933;SDS011;7560;51.364;12.384;2023-04-06T14:19:05;7.32;;;5.40;;
14933;SDS011;7560;51.364;12.384;2023-04-06T14:24:07;8.15;;;6.40;;
14933;SDS011;7560;51.364;12.384;2023-04-06T14:29:09;10.98;;;6.55;;
14933;SDS011;7560;51.364;12.384;2023-04-06T14:34:11;8.25;;;5.78;;
14933;SDS011;7560;51.364;12.384;2023-04-06T14:39:13;5.60;;;5.07;;
14933;SDS011;7560;51.364;12.384;2023-04-06T14:44:15;6.82;;;5.40;;
14933;SDS011;7560;51.364;12.384;2023-04-06T14:49:17;6.65;;;5.75;;
14933;SDS011;7560;51.364;12.384;2023-04-06T14:54:19;8.45;;;5.20;;
14933;SDS011;7560;51.364;12.384;2023-04-06T14:59:21;6.70;;;5.28;;
14933;SDS011;7560;51.364;12.384;2023-04-06T15:04:22;8.68;;;5.30;;
14933;SDS011;7560;51.364;12.384;2023-04-06T15:09:24;6.18;;;5.07;;
14933;SDS011;7560;51.364;12.384;2023-04-06T15:14:26;7.28;;;5.50;;
14933;SDS011;7560;51.364;12.384;2023-04-06T15:19:28;6.65;;;5.55;;
14933;SDS011;7560;51.364;12.384;2023-04-06T15:24:30;6.57;;;5.50;;
14933;SDS011;7560;51.364;12.384;2023-04-06T15:29:31;9.20;;;5.72;;
14933;SDS011;7560;51.364;12.384;2023-04-06T15:34:33;7.55;;;5.75;;
14933;SDS011;7560;51.364;12.384;2023-04-06T15:39:35;8.88;;;5.65;;
14933;SDS011;7560;51.364;12.384;2023-04-06T15:44:37;5.90;;;5.30;;
14933;SDS011;7560;51.364;12.384;2023-04-06T15:49:39;7.97;;;6.18;;
14933;SDS011;7560;51.364;12.384;2023-04-06T15:54:41;6.28;;;5.57;;
14933;SDS011;7560;51.364;12.384;2023-04-06T15:59:43;6.22;;;5.63;;
14933;SDS011;7560;51.364;12.384;2023-04-06T16:04:44;7.72;;;6.18;;
14933;SDS011;7560;51.364;12.384;2023-04-06T16:09:46;9.63;;;7.90;;
14933;SDS011;7560;51.364;12.384;2023-04-06T16:14:48;6.30;;;5.70;;
14933;SDS011;7560;51.364;12.384;2023-04-06T16:19:50;7.72;;;6.00;;
14933;SDS011;7560;51.364;12.384;2023-04-06T16:24:52;6.68;;;5.90;;
14933;SDS011;7560;51.364;12.384;2023-04-06T16:29:54;6.78;;;6.07;;
14933;SDS011;7560;51.364;12.384;2023-04-06T16:34:56;7.43;;;5.40;;
14933;SDS011;7560;51.364;12.384;2023-04-06T16:39:57;9.38;;;6.72;;
14933;SDS011;7560;51.364;12.384;2023-04-06T16:44:59;8.32;;;5.88;;
14933;SDS011;7560;51.364;12.384;2023-04-06T16:50:01;8.35;;;6.32;;
14933;SDS011;7560;51.364;12.384;2023-04-06T16:55:06;9.02;;;6.07;;
14933;SDS011;7560;51.364;12.384;2023-04-06T17:00:09;6.88;;;5.85;;
14933;SDS011;7560;51.364;12.384;2023-04-06T17:05:11;9.73;;;7.43;;
14933;SDS011;7560;51.364;12.384;2023-04-06T17:10:13;7.82;;;6.95;;
14933;SDS011;7560;51.364;12.384;2023-04-06T17:15:16;8.55;;;7.53;;
14933;SDS011;7560;51.364;12.384;2023-04-06T17:20:17;9.25;;;7.45;;
14933;SDS011;7560;51.364;12.384;2023-04-06T17:25:19;9.88;;;6.95;;
14933;SDS011;7560;51.364;12.384;2023-04-06T17:30:22;7.80;;;6.97;;
14933;SDS011;7560;51.364;12.384;2023-04-06T17:35:23;8.80;;;6.95;;
14933;SDS011;7560;51.364;12.384;2023-04-06T17:40:26;8.45;;;7.43;;
14933;SDS011;7560;51.364;12.384;2023-04-06T17:45:27;9.63;;;7.05;;
14933;SDS011;7560;51.364;12.384;2023-04-06T17:50:29;7.90;;;7.10;;
14933;SDS011;7560;51.364;12.384;2023-04-06T17:55:31;9.10;;;7.97;;
14933;SDS011;7560;51.364;12.384;2023-04-06T18:00:33;9.18;;;8.13;;
14933;SDS011;7560;51.364;12.384;2023-04-06T18:05:35;12.85;;;9.20;;
14933;SDS011;7560;51.364;12.384;2023-04-06T18:10:36;10.98;;;8.48;;
14933;SDS011;7560;51.364;12.384;2023-04-06T18:15:45;13.52;;;9.35;;
14933;SDS011;7560;51.364;12.384;2023-04-06T18:20:47;10.70;;;8.45;;
14933;SDS011;7560;51.364;12.384;2023-04-06T18:25:48;9.88;;;8.48;;
14933;SDS011;7560;51.364;12.384;2023-04-06T18:30:50;11.20;;;8.95;;
14933;SDS011;7560;51.364;12.384;2023-04-06T18:35:52;12.13;;;9.20;;
14933;SDS011;7560;51.364;12.384;2023-04-06T18:40:56;12.55;;;9.43;;
14933;SDS011;7560;51.364;12.384;2023-04-06T18:45:59;11.20;;;9.23;;
14933;SDS011;7560;51.364;12.384;2023-04-06T18:51:01;12.20;;;9.32;;
14933;SDS011;7560;51.364;12.384;2023-04-06T18:56:11;14.50;;;9.32;;
14933;SDS011;7560;51.364;12.384;2023-04-06T19:01:25;13.65;;;9.98;;
14933;SDS011;7560;51.364;12.384;2023-04-06T19:06:28;13.65;;;9.82;;
14933;SDS011;7560;51.364;12.384;2023-04-06T19:11:31;14.02;;;10.38;;
14933;SDS011;7560;51.364;12.384;2023-04-06T19:16:33;14.30;;;10.68;;
14933;SDS011;7560;51.364;12.384;2023-04-06T19:21:41;15.27;;;11.13;;
14933;SDS011;7560;51.364;12.384;2023-04-06T19:26:43;14.98;;;11.10;;
14933;SDS011;7560;51.364;12.384;2023-04-06T19:31:44;13.57;;;11.30;;
14933;SDS011;7560;51.364;12.384;2023-04-06T19:36:46;12.02;;;9.57;;
14933;SDS011;7560;51.364;12.384;2023-04-06T19:41:48;13.85;;;10.65;;
14933;SDS011;7560;51.364;12.384;2023-04-06T19:46:50;13.45;;;9.70;;
14933;SDS011;7560;51.364;12.384;2023-04-06T19:51:53;14.43;;;10.75;;
14933;SDS011;7560;51.364;12.384;2023-04-06T19:56:55;17.23;;;10.77;;
14933;SDS011;7560;51.364;12.384;2023-04-06T20:01:57;17.58;;;12.02;;
14933;SDS011;7560;51.364;12.384;2023-04-06T20:06:59;22.95;;;14.38;;
14933;SDS011;7560;51.364;12.384;2023-04-06T20:12:01;22.23;;;14.10;;
14933;SDS011;7560;51.364;12.384;2023-04-06T20:17:03;23.02;;;14.65;;
14933;SDS011;7560;51.364;12.384;2023-04-06T20:22:05;21.58;;;13.93;;
14933;SDS011;7560;51.364;12.384;2023-04-06T20:27:07;18.75;;;12.35;;
14933;SDS011;7560;51.364;12.384;2023-04-06T20:32:09;19.27;;;12.10;;
14933;SDS011;7560;51.364;12.384;2023-04-06T20:37:12;18.45;;;12.18;;
14933;SDS011;7560;51.364;12.384;2023-04-06T20:42:15;17.48;;;12.00;;
14933;SDS011;7560;51.364;12.384;2023-04-06T20:47:17;17.85;;;11.13;;
14933;SDS011;7560;51.364;12.384;2023-04-06T20:52:19;16.38;;;10.80;;
14933;SDS011;7560;51.364;12.384;2023-04-06T20:57:21;17.45;;;12.15;;
14933;SDS011;7560;51.364;12.384;2023-04-06T21:02:24;18.98;;;12.00;;
14933;SDS011;7560;51.364;12.384;2023-04-06T21:07:26;16.42;;;11.05;;
14933;SDS011;7560;51.364;12.384;2023-04-06T21:12:28;22.52;;;12.60;;
14933;SDS011;7560;51.364;12.384;2023-04-06T21:17:30;17.02;;;11.50;;
14933;SDS011;7560;51.364;12.384;2023-04-06T21:22:32;20.02;;;12.43;;
14933;SDS011;7560;51.364;12.384;2023-04-06T21:27:34;19.00;;;12.15;;
14933;SDS011;7560;51.364;12.384;2023-04-06T21:32:35;17.55;;;12.18;;
14933;SDS011;7560;51.364;12.384;2023-04-06T21:37:37;17.13;;;12.38;;
14933;SDS011;7560;51.364;12.384;2023-04-06T21:42:39;18.38;;;12.50;;
14933;SDS011;7560;51.364;12.384;2023-04-06T21:47:41;16.77;;;11.52;;
14933;SDS011;7560;51.364;12.384;2023-04-06T21:52:43;17.52;;;12.52;;
14933;SDS011;7560;51.364;12.384;2023-04-06T21:57:45;16.27;;;12.35;;
14933;SDS011;7560;51.364;12.384;2023-04-06T22:02:46;21.48;;;13.18;;
14933;SDS011;7560;51.364;12.384;2023-04-06T22:07:48;17.65;;;11.80;;
14933;SDS011;7560;51.364;12.384;2023-04-06T22:12:50;20.65;;;13.10;;
14933;SDS011;7560;51.364;12.384;2023-04-06T22:17:52;18.50;;;13.30;;
14933;SDS011;7560;51.364;12.384;2023-04-06T22:22:54;16.65;;;12.57;;
14933;SDS011;7560;51.364;12.384;2023-04-06T22:27:55;17.75;;;13.18;;
14933;SDS011;7560;51.364;12.384;2023-04-06T22:32:57;16.98;;;12.30;;
14933;SDS011;7560;51.364;12.384;2023-04-06T22:37:59;18.13;;;12.70;;
14933;SDS011;7560;51.364;12.384;2023-04-06T22:43:01;19.40;;;13.13;;
14933;SDS011;7560;51.364;12.384;2023-04-06T22:48:03;19.58;;;13.05;;
14933;SDS011;7560;51.364;12.384;2023-04-06T22:53:04;18.77;;;12.02;;
14933;SDS011;7560;51.364;12.384;2023-04-06T22:58:06;16.50;;;12.30;;
14933;SDS011;7560;51.364;12.384;2023-04-06T23:03:08;16.80;;;11.88;;
14933;SDS011;7560;51.364;12.384;2023-04-06T23:08:10;17.90;;;12.20;;
14933;SDS011;7560;51.364;12.384;2023-04-06T23:13:12;17.25;;;13.02;;
14933;SDS011;7560;51.364;12.384;2023-04-06T23:18:14;19.15;;;13.18;;
14933;SDS011;7560;51.364;12.384;2023-04-06T23:23:16;20.45;;;13.13;;
14933;SDS011;7560;51.364;12.384;2023-04-06T23:28:18;18.60;;;13.45;;
14933;SDS011;7560;51.364;12.384;2023-04-06T23:33:19;21.83;;;13.10;;
14933;SDS011;7560;51.364;12.384;2023-04-06T23:38:21;20.23;;;13.57;;
14933;SDS011;7560;51.364;12.384;2023-04-06T23:43:23;17.20;;;13.52;;
14933;SDS011;7560;51.364;12.384;2023-04-06T23:48:25;21.08;;;13.57;;
14933;SDS011;7560;51.364;12.384;2023-04-06T23:53:27;21.02;;;12.68;;
14933;SDS011;7560;51.364;12.384;2023-04-06T23:58:28;21.25;;;13.18;;
